KACB

Antrim County Airport

Bellaire, Michigan, USA
METAR KACB 222135Z AUTO 36006KT 10SM CLR 16/M07 A3033 RMK AO2 T01561071
Observed Flight Rules
Apr-22 @ 21:35 UTC (6 minutes ago) Visual Flight Rules
Wind Visibility Clouds
360° at 6 knots 10 miles
  • Clear skies
Temperatures Readings
Current 16°C / 61°F
Dewpoint -7°C / 19°F
Humidity 20%
Altimeter 30.33" Hg
Pressure 1027 hPa
Elevation 190
METAR KACB 222135Z AUTO 36006KT 10SM CLR 16/M07 A3033 RMK AO2 T01561071
Observed Flight Rules
Apr-22 @ 21:35 UTC
(6 minutes ago)
VFR
Wind Visibility
360° at 6 knots 10 miles
Clouds
  • Clear skies
Temperature Dewpoint
16°C / 61°F -7°C / 19°F
Humidity Altimeter Pressure
20% 30.33" Hg 1027 hPa